Impacts METAR Board
IDs:

KMEI - Meridian/Key Fld, MS, US

Updated at: 1100 UTC 20 May 2018
Potential Impact None Slight Moderate High
Time 19/23Z 20/00Z 20/01Z 20/02Z 20/03Z 20/04Z 20/05Z 20/06Z 20/07Z 20/08Z 20/09Z 20/10Z 20/11Z
Temp91 91 81 78 78 77 77 74 72 71 70 70 69
Dewpt67 68 74 73 73 71 67 65 65 65 65 66 65
Altim29.96 29.97 29.99 30.01 30.03 30.05 30.05 30.05 30.04 30.05 30.06 30.06 30.06
VIS10 10 10 10 10 10 10 10 10 10 10 10 10
CIG-- -- -- -- -- -- -- -- -- -- -- -- --
CoverCLRCLRCLRCLRFEWCLRCLRCLRCLRCLRCLRCLRCLR
FltCatVFRVFRVFRVFRVFRVFRVFRVFRVFRVFRVFRVFRVFR
WX--------------------------
WDir25000000160200170021000
WSpd3 0 0 0 0 5 7 3 4 0 3 0 0
WGst-- -- -- -- -- -- -- -- -- -- -- -- --
Raw hourly METARs
KMEI 192258Z 25003KT 10SM CLR 33/19 A2996 RMK AO2 SLP142 T03280194
KMEI 192358Z 00000KT 10SM CLR 33/20 A2997 RMK AO2 LTG DSNT S SLP144 T03280200 10333 20306 53004
KMEI 200058Z 00000KT 10SM CLR 27/23 A2999 RMK AO2 SLP150 T02720233
KMEI 200158Z 00000KT 10SM CLR 26/23 A3001 RMK AO2 LTG DSNT SE SLP158 T02560228
KMEI 200258Z 00000KT 10SM FEW120 26/23 A3003 RMK AO2 LTG DSNT SE SLP164 T02560228 53019
KMEI 200358Z AUTO VRB05KT 10SM CLR 25/22 A3005 RMK AO2 LTG DSNT SE AND S SLP171 T02500217
KMEI 200458Z AUTO 16007KT 10SM CLR 25/19 A3005 RMK AO2 SLP173 T02500194
KMEI 200558Z AUTO 20003KT 10SM CLR 23/18 A3005 RMK AO2 LTG DSNT S SLP169 T02330183 10328 20233 403330189 50006
KMEI 200658Z AUTO 17004KT 10SM CLR 22/18 A3004 RMK AO2 SLP170 T02220183
KMEI 200758Z AUTO 00000KT 10SM CLR 22/18 A3005 RMK AO2 SLP171 T02170183
KMEI 200858Z AUTO 21003KT 10SM CLR 21/18 A3006 RMK AO2 SLP173 T02110183 53003
KMEI 200958Z AUTO 00000KT 10SM CLR 21/19 A3006 RMK AO2 SLP174 T02110189
KMEI 201058Z 00000KT 10SM CLR 21/18 A3006 RMK AO2 SLP176 T02060183



Page loaded:  11:49 UTC  |   04:49 AM Pacific  |   05:49 AM Mountain  |   06:49 AM Central  |   07:49 AM Eastern

 

ADVISORIES

FORECASTS

FORECASTS

OBSERVATIONS

USER TOOLS

ABOUT US